createdAt,value
2018-06-23T00:00:52.976Z,74.70
2018-06-23T00:03:22.279Z,75.11
2018-06-23T00:05:51.606Z,75.02
2018-06-23T00:08:20.888Z,75.12
2018-06-23T00:10:50.176Z,74.76
2018-06-23T00:13:19.483Z,75.19
2018-06-23T00:15:48.788Z,75.06
2018-06-23T00:18:18.100Z,74.16
2018-06-23T00:20:47.392Z,74.53
2018-06-23T00:23:16.681Z,74.95
2018-06-23T00:25:51.156Z,75.02
2018-06-23T00:28:20.453Z,77.21
2018-06-23T00:30:49.749Z,75.14
2018-06-23T00:33:19.033Z,75.59
2018-06-23T00:35:48.332Z,75.78
2018-06-23T00:38:17.644Z,75.34
2018-06-23T00:40:46.910Z,75.66
2018-06-23T00:43:16.202Z,75.58
2018-06-23T00:45:45.497Z,75.73
2018-06-23T00:48:14.800Z,75.87
2018-06-23T00:50:44.099Z,75.68
2018-06-23T00:53:13.385Z,75.61
2018-06-23T00:55:42.697Z,76.41
2018-06-23T00:58:11.981Z,75.95
2018-06-23T01:00:41.275Z,76.72
2018-06-23T01:03:10.352Z,75.97
2018-06-23T01:05:39.635Z,76.15
2018-06-23T01:08:08.932Z,75.82
2018-06-23T01:10:38.221Z,76.53
2018-06-23T01:13:07.697Z,76.07
2018-06-23T01:15:36.989Z,76.06
2018-06-23T01:18:06.347Z,75.91
2018-06-23T01:20:35.649Z,76.33
2018-06-23T01:23:04.953Z,75.79
2018-06-23T01:25:34.240Z,76.79
2018-06-23T01:28:03.550Z,75.91
2018-06-23T01:30:32.857Z,77.56
2018-06-23T01:33:02.144Z,76.01
2018-06-23T01:35:31.444Z,76.75
2018-06-23T01:38:00.745Z,76.08
2018-06-23T01:40:30.025Z,75.98
2018-06-23T01:42:59.321Z,75.93
2018-06-23T01:45:28.607Z,75.90
2018-06-23T01:47:57.925Z,75.88
2018-06-23T01:50:27.213Z,76.51
2018-06-23T01:52:56.521Z,76.97
2018-06-23T01:55:25.825Z,77.68
2018-06-23T01:57:55.125Z,77.19
2018-06-23T02:00:24.400Z,76.87
2018-06-23T02:02:53.708Z,76.90
2018-06-23T02:05:23.013Z,77.52
2018-06-23T02:07:52.329Z,77.59
2018-06-23T02:10:21.611Z,76.49
2018-06-23T02:12:50.912Z,75.89
2018-06-23T02:15:24.285Z,76.02
2018-06-23T02:17:58.989Z,76.60
2018-06-23T02:20:33.500Z,76.79
2018-06-23T02:23:08.140Z,77.19
2018-06-23T02:25:42.418Z,76.90
2018-06-23T02:28:17.201Z,76.97
2018-06-23T02:30:51.762Z,77.96
2018-06-23T02:33:26.512Z,77.61
2018-06-23T02:35:55.861Z,77.37
2018-06-23T02:38:25.208Z,77.15
2018-06-23T02:40:54.569Z,77.63
2018-06-23T02:43:23.925Z,77.55
2018-06-23T02:45:53.278Z,77.22
2018-06-23T02:48:22.620Z,76.48
2018-06-23T02:50:51.961Z,75.67
2018-06-23T02:53:21.329Z,76.68
2018-06-23T02:55:50.671Z,75.66
2018-06-23T02:58:20.003Z,76.89
2018-06-23T03:00:49.348Z,76.80
2018-06-23T03:03:18.506Z,76.64
2018-06-23T03:05:47.817Z,76.38
2018-06-23T03:08:17.136Z,76.67
2018-06-23T03:10:46.237Z,77.08
2018-06-23T03:13:15.332Z,77.44
2018-06-23T03:15:44.424Z,76.80
2018-06-23T03:18:13.519Z,77.36
2018-06-23T03:20:42.849Z,77.67
2018-06-23T03:23:12.172Z,78.07
2018-06-23T03:25:41.527Z,78.08
2018-06-23T03:28:10.623Z,77.55
2018-06-23T03:30:39.711Z,76.19
2018-06-23T03:33:08.795Z,76.36
2018-06-23T03:35:38.151Z,76.91
2018-06-23T03:38:07.581Z,76.98
2018-06-23T03:40:36.941Z,77.23
2018-06-23T03:43:06.296Z,78.45
2018-06-23T03:45:35.653Z,79.40
2018-06-23T03:48:04.989Z,78.57
2018-06-23T03:50:34.325Z,77.58
2018-06-23T03:53:03.655Z,78.08
2018-06-23T03:55:33.017Z,78.40
2018-06-23T03:58:02.344Z,78.11
2018-06-23T04:00:31.680Z,78.65
2018-06-23T04:03:01.022Z,78.45
2018-06-23T04:05:30.357Z,78.63
2018-06-23T04:07:59.685Z,79.14
2018-06-23T04:10:29.020Z,78.52
2018-06-23T04:12:58.374Z,79.08
2018-06-23T04:15:27.700Z,78.85
2018-06-23T04:17:57.028Z,79.85
2018-06-23T04:20:26.104Z,80.30
2018-06-23T04:22:55.431Z,80.16
2018-06-23T04:25:24.743Z,81.14
2018-06-23T04:27:54.084Z,80.28
2018-06-23T04:30:23.386Z,80.50
2018-06-23T04:32:52.697Z,80.82
2018-06-23T04:35:22.118Z,80.78
2018-06-23T04:37:51.259Z,81.20
2018-06-23T04:40:20.561Z,81.20
2018-06-23T04:42:49.862Z,80.92
2018-06-23T04:45:19.180Z,80.86
2018-06-23T04:47:48.509Z,81.60
2018-06-23T04:50:17.583Z,81.22
2018-06-23T04:52:46.906Z,81.56
2018-06-23T04:55:15.980Z,81.94
2018-06-23T04:57:45.380Z,81.68
2018-06-23T05:00:14.698Z,82.40
2018-06-23T05:02:43.776Z,82.87
2018-06-23T05:05:13.092Z,82.73
2018-06-23T05:07:42.413Z,82.46
2018-06-23T05:10:11.717Z,82.74
2018-06-23T05:12:41.053Z,82.83
2018-06-23T05:15:10.397Z,82.44
2018-06-23T05:17:39.733Z,82.41
2018-06-23T05:20:09.060Z,81.50
2018-06-23T05:22:38.620Z,81.59
2018-06-23T05:25:07.925Z,80.49
2018-06-23T05:27:37.333Z,79.38
2018-06-23T05:30:06.657Z,79.37
2018-06-23T05:32:35.989Z,79.50
2018-06-23T05:35:05.301Z,79.18
2018-06-23T05:37:34.603Z,80.48
2018-06-23T05:40:03.708Z,79.09
2018-06-23T05:42:32.784Z,78.99
2018-06-23T05:45:02.088Z,78.96
2018-06-23T05:47:31.176Z,78.42
2018-06-23T05:50:00.485Z,79.56
2018-06-23T05:52:29.789Z,78.50
2018-06-23T05:54:58.859Z,77.65
2018-06-23T05:57:28.188Z,77.59
2018-06-23T05:59:57.516Z,77.94
2018-06-23T06:02:26.841Z,78.15
2018-06-23T06:04:56.164Z,77.56
2018-06-23T06:07:25.493Z,77.29
2018-06-23T06:09:54.568Z,77.02
2018-06-23T06:12:23.881Z,76.63
2018-06-23T06:14:52.968Z,76.85
2018-06-23T06:17:27.681Z,76.28
2018-06-23T06:19:58.144Z,76.53
2018-06-23T06:22:28.781Z,76.11
2018-06-23T06:24:58.156Z,75.54
2018-06-23T06:27:27.535Z,75.91
2018-06-23T06:29:57.505Z,75.67
2018-06-23T06:32:27.208Z,74.71
2018-06-23T06:34:56.661Z,74.38
2018-06-23T06:37:26.017Z,74.67
2018-06-23T06:39:55.360Z,74.44
2018-06-23T06:42:24.714Z,74.92
2018-06-23T06:44:54.043Z,73.97
2018-06-23T06:47:23.377Z,73.37
2018-06-23T06:49:52.924Z,72.45
2018-06-23T06:52:22.256Z,72.01
2018-06-23T06:54:51.584Z,71.25
2018-06-23T06:57:20.908Z,71.73
2018-06-23T06:59:50.025Z,72.50
2018-06-23T07:02:19.343Z,73.29
2018-06-23T07:04:48.656Z,72.14
2018-06-23T07:07:17.986Z,70.99
2018-06-23T07:09:47.307Z,69.83
2018-06-23T07:12:16.629Z,69.80
2018-06-23T07:14:45.961Z,69.00
2018-06-23T07:17:15.329Z,68.30
2018-06-23T07:19:44.682Z,66.22
2018-06-23T07:22:14.016Z,66.88
2018-06-23T07:24:43.365Z,66.66
2018-06-23T07:27:12.728Z,66.49
2018-06-23T07:29:42.103Z,66.04
2018-06-23T07:32:11.213Z,67.15
2018-06-23T07:34:40.607Z,65.94
2018-06-23T07:37:09.927Z,62.82
2018-06-23T07:39:39.287Z,61.31
2018-06-23T07:42:08.424Z,60.02
2018-06-23T07:44:37.797Z,61.28
2018-06-23T07:47:06.900Z,60.89
2018-06-23T07:49:36.296Z,61.58
2018-06-23T07:52:05.711Z,61.23
2018-06-23T07:54:35.019Z,62.25
2018-06-23T07:57:04.356Z,61.97
2018-06-23T07:59:33.697Z,61.17
2018-06-23T08:02:02.808Z,61.71
2018-06-23T08:04:32.157Z,59.36
2018-06-23T08:07:01.519Z,60.24
2018-06-23T08:09:30.865Z,59.52
2018-06-23T08:12:00.210Z,60.33
2018-06-23T08:14:29.561Z,60.42
2018-06-23T08:16:58.915Z,59.64
2018-06-23T08:19:28.265Z,58.58
2018-06-23T08:21:57.619Z,58.16
2018-06-23T08:24:27.245Z,59.08
2018-06-23T08:26:56.605Z,58.41
2018-06-23T08:29:25.953Z,57.57
2018-06-23T08:31:55.360Z,57.50
2018-06-23T08:34:24.632Z,57.45
2018-06-23T08:36:53.976Z,57.50
2018-06-23T08:39:24.028Z,57.78
2018-06-23T08:41:53.359Z,57.46
2018-06-23T08:44:22.713Z,57.06
2018-06-23T08:46:52.053Z,57.41
2018-06-23T08:49:21.392Z,56.75
2018-06-23T08:51:50.739Z,56.54
2018-06-23T08:54:19.829Z,58.21
2018-06-23T08:56:48.975Z,57.64
2018-06-23T08:59:18.267Z,56.81
2018-06-23T09:01:47.671Z,56.29
2018-06-23T09:04:16.952Z,56.91
2018-06-23T09:06:46.301Z,56.93
2018-06-23T09:09:15.641Z,56.61
2018-06-23T09:11:44.723Z,55.77
2018-06-23T09:14:13.822Z,56.33
2018-06-23T09:16:43.232Z,56.52
2018-06-23T09:19:12.516Z,56.63
2018-06-23T09:21:41.611Z,57.44
2018-06-23T09:24:10.961Z,57.15
2018-06-23T09:26:40.319Z,57.54
2018-06-23T09:29:09.661Z,56.67
2018-06-23T09:31:39.004Z,56.92
2018-06-23T09:34:09.160Z,58.12
2018-06-23T09:36:38.517Z,55.73
2018-06-23T09:39:10.525Z,56.43
2018-06-23T09:41:39.864Z,55.61
2018-06-23T09:44:09.254Z,56.31
2018-06-23T09:46:38.833Z,55.72
2018-06-23T09:49:08.194Z,56.26
2018-06-23T09:51:37.551Z,55.87
2018-06-23T09:54:06.912Z,54.19
2018-06-23T09:56:35.994Z,55.02
2018-06-23T09:59:05.345Z,55.18
2018-06-23T10:01:34.689Z,54.77
2018-06-23T10:04:04.070Z,50.70
2018-06-23T10:06:33.412Z,51.71
2018-06-23T10:09:02.621Z,52.92
2018-06-23T10:11:31.713Z,53.34
2018-06-23T10:14:00.811Z,54.73
2018-06-23T10:16:30.133Z,54.35
2018-06-23T10:18:59.459Z,53.00
2018-06-23T10:21:28.879Z,53.04
2018-06-23T10:23:58.152Z,51.84
2018-06-23T10:26:27.464Z,52.36
2018-06-23T10:28:56.809Z,53.15
2018-06-23T10:31:25.889Z,51.55
2018-06-23T10:33:55.569Z,50.53
2018-06-23T10:36:24.882Z,51.54
2018-06-23T10:38:54.209Z,49.85
2018-06-23T10:41:23.284Z,49.69
2018-06-23T10:43:52.593Z,50.54
2018-06-23T10:46:21.940Z,51.46
2018-06-23T10:48:50.981Z,50.25
2018-06-23T10:51:20.273Z,48.42
2018-06-23T10:53:49.584Z,47.03
2018-06-23T10:56:19.859Z,51.13
2018-06-23T10:58:49.176Z,48.02
2018-06-23T11:01:18.488Z,48.09
2018-06-23T11:03:47.796Z,48.76
2018-06-23T11:06:17.100Z,49.18
2018-06-23T11:08:46.421Z,48.85
2018-06-23T11:11:15.739Z,48.00
2018-06-23T11:13:45.228Z,45.70
2018-06-23T11:16:14.535Z,44.51
2018-06-23T11:18:43.884Z,44.71
2018-06-23T11:21:13.229Z,44.55
2018-06-23T11:23:42.307Z,45.53
2018-06-23T11:26:11.640Z,45.11
2018-06-23T11:28:40.972Z,45.65
2018-06-23T11:31:10.308Z,45.99
2018-06-23T11:33:39.635Z,45.36
2018-06-23T11:36:08.975Z,45.53
2018-06-23T11:38:38.320Z,46.56
2018-06-23T11:41:07.667Z,44.08
2018-06-23T11:43:37.277Z,45.24
2018-06-23T11:46:06.639Z,45.07
2018-06-23T11:48:35.768Z,46.14
2018-06-23T11:51:05.109Z,45.90
2018-06-23T11:53:34.432Z,45.85
2018-06-23T11:56:03.776Z,46.63
2018-06-23T11:58:33.112Z,43.84
2018-06-23T12:01:02.525Z,41.35
2018-06-23T12:03:31.881Z,41.71
2018-06-23T12:06:01.226Z,42.22
2018-06-23T12:08:30.574Z,43.34
2018-06-23T12:10:59.919Z,42.29
2018-06-23T12:13:29.243Z,43.37
2018-06-23T12:15:58.347Z,44.33
2018-06-23T12:18:27.688Z,44.07
2018-06-23T12:20:57.019Z,43.15
2018-06-23T12:23:26.361Z,42.27
2018-06-23T12:25:55.698Z,41.99
2018-06-23T12:28:25.044Z,41.98
2018-06-23T12:30:54.372Z,41.20
2018-06-23T12:33:23.706Z,42.35
2018-06-23T12:35:53.036Z,43.26
2018-06-23T12:38:22.120Z,42.63
2018-06-23T12:40:51.457Z,42.42
2018-06-23T12:43:20.792Z,43.38
2018-06-23T12:45:50.133Z,42.55
2018-06-23T12:48:19.232Z,42.70
2018-06-23T12:50:48.371Z,42.22
2018-06-23T12:53:17.687Z,41.77
2018-06-23T12:55:47.011Z,41.76
2018-06-23T12:58:16.343Z,39.58
2018-06-23T13:00:45.765Z,41.31
2018-06-23T13:03:15.101Z,40.84
2018-06-23T13:05:44.431Z,40.37
2018-06-23T13:08:13.753Z,40.59
2018-06-23T13:10:43.121Z,40.30
2018-06-23T13:13:12.475Z,40.78
2018-06-23T13:15:41.812Z,40.34
2018-06-23T13:18:11.176Z,40.27
2018-06-23T13:20:41.061Z,40.47
2018-06-23T13:23:10.484Z,42.72
2018-06-23T13:25:39.830Z,40.17
2018-06-23T13:28:09.271Z,40.07
2018-06-23T13:30:38.508Z,40.57
2018-06-23T13:33:07.868Z,40.21
2018-06-23T13:35:37.214Z,40.66
2018-06-23T13:38:06.568Z,40.90
2018-06-23T13:40:35.914Z,40.64
2018-06-23T13:43:05.259Z,40.93
2018-06-23T13:45:34.347Z,41.36
2018-06-23T13:48:03.446Z,39.74
2018-06-23T13:50:32.802Z,41.44
2018-06-23T13:53:02.146Z,41.84
2018-06-23T13:55:31.232Z,40.64
2018-06-23T13:58:00.577Z,40.09
2018-06-23T14:00:29.919Z,39.48
2018-06-23T14:02:59.252Z,40.52
2018-06-23T14:05:28.343Z,39.00
2018-06-23T14:07:57.718Z,40.07
2018-06-23T14:10:27.064Z,40.28
2018-06-23T14:12:56.421Z,39.59
2018-06-23T14:15:25.762Z,40.44
2018-06-23T14:17:55.120Z,41.08
2018-06-23T14:20:24.466Z,40.86
2018-06-23T14:22:53.810Z,40.32
2018-06-23T14:25:23.173Z,39.77
2018-06-23T14:27:52.528Z,38.15
2018-06-23T14:30:21.896Z,37.89
2018-06-23T14:32:51.259Z,38.43
2018-06-23T14:35:20.597Z,40.65
2018-06-23T14:37:49.938Z,41.35
2018-06-23T14:40:19.428Z,42.30
2018-06-23T14:42:48.625Z,41.57
2018-06-23T14:45:17.978Z,42.74
2018-06-23T14:47:47.309Z,42.40
2018-06-23T14:50:16.658Z,43.40
2018-06-23T14:52:46.639Z,43.75
2018-06-23T14:55:16.020Z,44.03
2018-06-23T14:57:45.382Z,43.52
2018-06-23T15:00:14.492Z,43.73
2018-06-23T15:02:43.825Z,43.74
2018-06-23T15:05:13.165Z,44.96
2018-06-23T15:07:42.534Z,44.11
2018-06-23T15:10:29.135Z,43.99
2018-06-23T15:13:17.129Z,44.98
2018-06-23T15:15:46.641Z,44.88
2018-06-23T15:18:16.021Z,45.54
2018-06-23T15:20:45.100Z,46.27
2018-06-23T15:23:14.413Z,46.05
2018-06-23T15:25:43.735Z,46.48
2018-06-23T15:28:13.045Z,47.16
2018-06-23T15:30:42.387Z,49.15
2018-06-23T15:33:11.699Z,48.63
2018-06-23T15:35:41.025Z,48.20
2018-06-23T15:38:10.153Z,48.13
2018-06-23T15:40:39.501Z,48.93
2018-06-23T15:43:08.712Z,48.34
2018-06-23T15:45:37.783Z,49.19
2018-06-23T15:48:07.083Z,48.95
2018-06-23T15:50:36.395Z,50.18
2018-06-23T15:53:05.750Z,49.92
2018-06-23T15:55:35.032Z,47.92
2018-06-23T15:58:04.337Z,47.72
2018-06-23T16:00:33.661Z,48.30
2018-06-23T16:03:03.888Z,47.81
2018-06-23T16:05:33.200Z,49.36
2018-06-23T16:08:02.510Z,49.48
2018-06-23T16:10:31.926Z,48.79
2018-06-23T16:13:01.234Z,49.15
2018-06-23T16:15:30.308Z,49.89
2018-06-23T16:17:59.665Z,48.29
2018-06-23T16:20:29.004Z,48.67
2018-06-23T16:22:58.357Z,50.35
2018-06-23T16:25:27.712Z,52.91
2018-06-23T16:27:57.069Z,51.16
2018-06-23T16:30:26.409Z,51.71
2018-06-23T16:32:55.750Z,52.17
2018-06-23T16:35:25.501Z,52.28
2018-06-23T16:37:54.435Z,52.74
2018-06-23T16:40:23.544Z,52.58
2018-06-23T16:42:52.883Z,52.46
2018-06-23T16:45:22.227Z,53.29
2018-06-23T17:16:48.665Z,49.56
2018-06-23T17:19:17.976Z,49.66
2018-06-23T17:21:47.568Z,50.35
2018-06-23T17:24:16.905Z,50.27
2018-06-23T17:26:46.232Z,50.97
2018-06-23T17:29:15.565Z,51.04
2018-06-23T17:31:44.666Z,51.98
2018-06-23T17:34:13.738Z,51.17
2018-06-23T17:36:43.064Z,51.63
2018-06-23T17:39:12.387Z,51.64
2018-06-23T17:41:42.078Z,52.09
2018-06-23T17:44:11.453Z,51.72
2018-06-23T17:46:40.791Z,51.49
2018-06-23T17:49:10.135Z,51.54
2018-06-23T17:51:39.567Z,51.20
2018-06-23T17:54:09.140Z,51.71
2018-06-23T17:56:38.475Z,53.86
2018-06-23T17:59:07.577Z,55.04
2018-06-23T18:01:36.655Z,55.50
2018-06-23T18:04:05.972Z,56.70
2018-06-23T18:06:35.313Z,56.45
2018-06-23T18:09:07.689Z,57.20
2018-06-23T18:11:37.033Z,58.12
2018-06-23T18:14:06.463Z,58.86
2018-06-23T18:16:35.812Z,59.19
2018-06-23T18:19:05.617Z,58.93
2018-06-23T18:21:34.954Z,59.63
2018-06-23T18:24:04.044Z,60.51
2018-06-23T18:26:33.567Z,61.18
2018-06-23T18:29:02.909Z,61.46
2018-06-23T18:31:32.246Z,62.57
2018-06-23T18:34:01.356Z,62.07
2018-06-23T18:36:30.857Z,62.58
2018-06-23T18:38:59.939Z,62.70
2018-06-23T18:41:29.281Z,63.08
2018-06-23T18:43:58.641Z,63.43
2018-06-23T18:46:27.961Z,62.95
2018-06-23T18:48:57.309Z,63.56
2018-06-23T18:51:26.645Z,64.47
2018-06-23T18:53:55.783Z,64.50
2018-06-23T18:56:25.133Z,64.08
2018-06-23T18:58:54.484Z,64.14
2018-06-23T19:01:23.824Z,64.56
2018-06-23T19:03:53.234Z,63.74
2018-06-23T19:06:22.704Z,64.81
2018-06-23T19:08:52.106Z,64.96
2018-06-23T19:11:21.118Z,65.05
2018-06-23T19:13:50.468Z,64.70
2018-06-23T19:16:19.801Z,65.10
2018-06-23T19:18:49.133Z,64.69
2018-06-23T19:21:18.450Z,64.52
2018-06-23T19:23:47.527Z,64.93
2018-06-23T19:26:16.841Z,64.99
2018-06-23T19:28:45.922Z,64.98
2018-06-23T19:31:15.229Z,65.52
2018-06-23T19:33:44.585Z,64.75
2018-06-23T19:36:13.876Z,64.87
2018-06-23T19:38:43.192Z,64.95
2018-06-23T19:41:24.219Z,65.36
2018-06-23T19:43:53.326Z,65.45
2018-06-23T19:46:22.601Z,66.25
2018-06-23T19:48:52.135Z,65.90
2018-06-23T19:51:21.567Z,66.83
2018-06-23T19:53:50.887Z,66.57
2018-06-23T19:56:20.202Z,67.04
2018-06-23T19:58:49.624Z,66.74
2018-06-23T20:01:18.924Z,67.88
2018-06-23T20:03:47.999Z,67.89
2018-06-23T20:06:17.318Z,68.25
2018-06-23T20:08:46.382Z,68.78
2018-06-23T20:11:15.714Z,68.77
2018-06-23T20:13:45.039Z,68.48
2018-06-23T20:16:14.357Z,69.25
2018-06-23T20:18:44.048Z,68.41
2018-06-23T20:21:13.396Z,68.85
2018-06-23T20:23:42.728Z,68.68
2018-06-23T20:26:11.819Z,68.49
2018-06-23T20:28:41.160Z,69.08
2018-06-23T20:31:10.501Z,69.99
2018-06-23T20:33:39.821Z,70.52
2018-06-23T20:36:09.170Z,70.39
2018-06-23T20:38:38.493Z,70.10
2018-06-23T20:41:07.823Z,70.46
2018-06-23T20:43:37.135Z,70.44
2018-06-23T20:46:06.472Z,71.10
2018-06-23T20:48:35.800Z,71.68
2018-06-23T20:51:05.158Z,72.09
2018-06-23T20:53:34.500Z,71.68
2018-06-23T20:56:03.864Z,71.44
2018-06-23T20:58:33.188Z,71.80
2018-06-23T21:01:02.557Z,71.97
2018-06-23T21:03:31.850Z,72.89
2018-06-23T21:06:01.196Z,72.41
2018-06-23T21:08:30.528Z,72.67
2018-06-23T21:10:59.627Z,73.09
2018-06-23T21:13:28.716Z,73.12
2018-06-23T21:15:57.800Z,72.94
2018-06-23T21:18:27.148Z,73.29
2018-06-23T21:20:56.497Z,74.16
2018-06-23T21:23:25.834Z,73.47
2018-06-23T21:25:55.178Z,73.18
2018-06-23T21:28:24.500Z,72.31
2018-06-23T21:30:53.877Z,72.50
2018-06-23T21:33:23.185Z,73.61
2018-06-23T21:35:52.511Z,73.43
2018-06-23T21:38:21.835Z,73.21
2018-06-23T21:40:51.180Z,73.80
2018-06-23T21:43:20.512Z,73.60
2018-06-23T21:45:49.610Z,74.37
2018-06-23T21:48:18.683Z,74.52
2018-06-23T21:50:48.025Z,73.74
2018-06-23T21:53:17.352Z,73.23
2018-06-23T21:55:46.681Z,73.15
2018-06-23T21:58:16.030Z,73.94
2018-06-23T22:00:46.034Z,74.26
2018-06-23T22:03:15.612Z,74.58
2018-06-23T22:05:44.947Z,74.92
2018-06-23T22:08:14.286Z,74.36
2018-06-23T22:10:43.609Z,74.52
2018-06-23T22:13:12.943Z,75.29
2018-06-23T22:15:42.264Z,75.48
2018-06-23T22:18:11.616Z,76.30
2018-06-23T22:20:40.949Z,74.94
2018-06-23T22:23:10.288Z,76.42
2018-06-23T22:25:39.618Z,76.24
2018-06-23T22:28:09.201Z,76.06
2018-06-23T22:30:38.522Z,76.55
2018-06-23T22:33:07.854Z,76.35
2018-06-23T22:35:37.204Z,76.55
2018-06-23T22:38:06.656Z,76.85
2018-06-23T22:40:35.987Z,76.44
2018-06-23T22:43:05.321Z,76.15
2018-06-23T22:45:34.640Z,76.44
2018-06-23T22:48:03.973Z,76.58
2018-06-23T22:50:33.309Z,77.16
2018-06-23T22:53:02.635Z,77.72
2018-06-23T22:55:31.966Z,77.63
2018-06-23T22:58:01.313Z,78.49
2018-06-23T23:00:30.631Z,78.60
2018-06-23T23:02:59.969Z,78.89
2018-06-23T23:05:29.305Z,78.07
2018-06-23T23:07:58.632Z,77.97
2018-06-23T23:10:27.957Z,78.30
2018-06-23T23:12:57.173Z,78.10
2018-06-23T23:15:26.467Z,79.41
2018-06-23T23:17:55.809Z,79.05
2018-06-23T23:20:25.128Z,79.32
2018-06-23T23:22:54.473Z,79.37
2018-06-23T23:25:23.805Z,79.71
2018-06-23T23:27:53.155Z,79.32
2018-06-23T23:30:22.504Z,78.98
2018-06-23T23:32:51.837Z,79.01
2018-06-23T23:35:21.169Z,79.77
2018-06-23T23:37:50.533Z,78.93
2018-06-23T23:40:19.858Z,79.30
2018-06-23T23:42:49.209Z,79.18
2018-06-23T23:45:18.546Z,78.88
2018-06-23T23:47:47.869Z,79.12
2018-06-23T23:50:16.965Z,79.35
2018-06-23T23:52:46.293Z,79.36
2018-06-23T23:55:15.617Z,79.08
2018-06-23T23:57:44.936Z,79.04
